Time;durP1;ratioP1;P1;durP2;ratioP2;P2;SDS_P1;SDS_P2;PMS_P1;PMS_P2;Temp;Humidity;BMP_temperature;BMP_pressure;BME280_temperature;BME280_humidity;BME280_pressure;Samples;Min_cycle;Max_cycle;Signal;HPM_P1;HPM_P2
2022/06/20 00:00:30;;;;;;;3.72;1.00;;;;;;;22.36;37.75;101297.31;16138725;19;129466;-58
2022/06/20 00:05:52;;;;;;;2.55;0.65;;;;;;;22.36;37.81;101322.41;16140834;19;130188;-57
2022/06/20 00:11:20;;;;;;;2.45;0.88;;;;;;;22.36;38.13;101406.88;16138857;19;129350;-57
2022/06/20 00:16:42;;;;;;;5.15;0.52;;;;;;;22.38;37.85;101509.75;16135978;19;129617;-57
2022/06/20 00:22:04;;;;;;;1.92;0.80;;;;;;;22.36;38.08;101557.41;16133518;19;129785;-56
2022/06/20 00:27:25;;;;;;;2.15;0.50;;;;;;;22.36;38.11;101551.84;16135968;19;130937;-57
2022/06/20 00:32:48;;;;;;;2.13;0.60;;;;;;;22.36;37.88;101501.66;16128425;19;129927;-58
2022/06/20 00:38:16;;;;;;;1.55;0.50;;;;;;;22.35;38.17;101460.09;16131215;19;130376;-58
2022/06/20 00:43:45;;;;;;;2.90;0.50;;;;;;;22.34;38.21;101414.66;16134118;19;129880;-57
2022/06/20 00:49:34;;;;;;;2.95;0.70;;;;;;;22.33;38.12;101379.53;16135571;19;130004;-57
2022/06/20 00:55:13;;;;;;;4.40;0.80;;;;;;;22.32;38.01;101336.03;16135313;19;129853;-57
2022/06/20 01:00:39;;;;;;;2.60;0.77;;;;;;;22.30;38.04;101313.13;16135468;19;129618;-58
2022/06/20 01:06:16;;;;;;;3.08;0.65;;;;;;;22.30;38.38;101302.00;16132982;19;129685;-58
2022/06/20 01:12:09;;;;;;;3.13;0.85;;;;;;;22.28;38.15;101315.34;16131461;19;132161;-55
2022/06/20 01:17:37;;;;;;;2.75;0.70;;;;;;;22.28;37.86;101295.84;16129528;19;130461;-57
2022/06/20 01:23:08;;;;;;;6.75;1.05;;;;;;;22.25;38.18;101282.44;16131214;19;130564;-57
2022/06/20 01:28:37;;;;;;;;;;;;;;;22.20;37.98;101291.56;16130317;19;129504;-57
2022/06/20 01:34:01;;;;;;;3.15;1.17;;;;;;;22.21;38.29;101264.56;16132380;19;130039;-56
2022/06/20 01:39:24;;;;;;;2.42;0.75;;;;;;;22.18;38.09;101273.41;16145344;19;130493;-56
2022/06/20 01:50:53;;;;;;;3.07;0.93;;;;;;;22.16;38.10;101256.09;16146144;19;129989;-57
2022/06/20 01:56:16;;;;;;;3.10;0.90;;;;;;;22.15;38.28;101260.03;16139743;19;129948;-56
2022/06/20 02:01:39;;;;;;;3.75;0.93;;;;;;;22.14;37.99;101275.88;16145781;19;130454;-57
2022/06/20 02:07:03;;;;;;;4.03;0.90;;;;;;;22.14;38.06;101261.94;16143123;19;129358;-57
2022/06/20 02:12:26;;;;;;;2.40;0.95;;;;;;;22.13;38.09;101249.97;16141877;19;129684;-57
2022/06/20 02:17:51;;;;;;;3.65;0.95;;;;;;;22.11;37.69;101254.97;16144889;19;129710;-57
2022/06/20 02:23:19;;;;;;;3.83;1.30;;;;;;;22.10;37.96;101242.13;16144047;19;129463;-56
2022/06/20 02:28:49;;;;;;;3.97;0.95;;;;;;;22.10;37.96;101218.97;16145080;19;130177;-55
2022/06/20 02:34:10;;;;;;;7.13;1.25;;;;;;;22.07;37.95;101203.63;16139614;19;130815;-57
2022/06/20 02:39:35;;;;;;;3.85;0.95;;;;;;;22.07;38.03;101225.09;16143625;19;130575;-58
2022/06/20 02:44:58;;;;;;;3.92;0.77;;;;;;;22.04;37.81;101232.03;16142012;19;130453;-57
2022/06/20 02:50:26;;;;;;;4.90;1.13;;;;;;;22.03;37.73;101251.78;16143913;19;130104;-57
2022/06/20 02:55:50;;;;;;;5.07;0.90;;;;;;;22.02;37.51;101259.31;16141425;19;130861;-56
2022/06/20 03:01:20;;;;;;;3.28;0.98;;;;;;;22.01;37.61;101277.16;16139595;19;129904;-58
2022/06/20 03:06:50;;;;;;;3.17;0.82;;;;;;;22.01;37.65;101293.84;16141182;19;129849;-57
2022/06/20 03:12:13;;;;;;;3.05;0.95;;;;;;;22.01;37.76;101298.56;16140960;19;130394;-57
2022/06/20 03:17:35;;;;;;;3.75;0.93;;;;;;;22.01;38.04;101302.22;16140633;19;129640;-56
2022/06/20 03:23:12;;;;;;;4.63;0.98;;;;;;;22.01;37.50;101293.84;16142035;19;129762;-57
2022/06/20 03:28:34;;;;;;;2.63;0.90;;;;;;;21.98;37.81;101311.91;16138905;19;129534;-57
2022/06/20 03:33:57;;;;;;;2.17;0.88;;;;;;;21.98;37.46;101328.63;16134227;19;130187;-56
2022/06/20 03:39:20;;;;;;;3.83;0.85;;;;;;;21.98;37.93;101325.84;16139065;19;130107;-57
2022/06/20 03:44:50;;;;;;;3.30;0.80;;;;;;;21.97;37.52;101343.66;16136873;19;129685;-57
2022/06/20 03:50:18;;;;;;;3.25;0.88;;;;;;;21.96;37.91;101347.56;16141232;19;130030;-58
2022/06/20 03:56:05;;;;;;;5.07;0.80;;;;;;;21.97;37.92;101348.41;16132518;19;129779;-58
2022/06/20 04:01:45;;;;;;;3.28;1.05;;;;;;;21.96;37.75;101360.63;16133780;19;129808;-58
2022/06/20 04:07:18;;;;;;;3.53;0.88;;;;;;;21.96;37.70;101369.00;16133175;19;129454;-58
2022/06/20 04:12:44;;;;;;;4.05;0.88;;;;;;;21.94;37.76;101360.06;16133688;19;130087;-58
2022/06/20 04:18:36;;;;;;;3.35;0.90;;;;;;;21.94;37.78;101371.19;16135498;19;132316;-58
2022/06/20 04:23:58;;;;;;;4.18;0.65;;;;;;;21.93;37.54;101386.22;16134088;19;130684;-57
2022/06/20 04:29:24;;;;;;;5.47;1.30;;;;;;;21.92;37.78;101390.09;16133343;19;130547;-56
2022/06/20 04:35:15;;;;;;;2.50;1.00;;;;;;;21.92;37.80;101399.31;16135328;19;129454;-58
2022/06/20 04:41:04;;;;;;;3.05;1.02;;;;;;;21.91;37.77;101396.81;16138897;19;128997;-57
2022/06/20 04:46:38;;;;;;;3.55;0.70;;;;;;;21.91;37.90;101407.94;16136119;19;130868;-58
2022/06/20 04:52:01;;;;;;;2.45;0.80;;;;;;;21.89;37.61;101387.84;16134870;19;129658;-56
2022/06/20 04:57:30;;;;;;;4.15;0.95;;;;;;;21.88;37.53;101389.78;16133426;19;131852;-57
2022/06/20 05:02:56;;;;;;;4.50;1.00;;;;;;;21.87;37.81;101417.91;16135027;19;129721;-57
2022/06/20 05:08:38;;;;;;;3.85;0.90;;;;;;;21.86;37.63;101417.03;16137371;19;129663;-58
2022/06/20 05:14:14;;;;;;;3.75;1.20;;;;;;;21.87;37.83;101420.69;16148753;19;129553;-58
2022/06/20 05:19:48;;;;;;;3.50;0.90;;;;;;;21.83;38.00;101415.63;16149011;19;129683;-57
2022/06/20 05:25:17;;;;;;;3.83;0.80;;;;;;;21.83;37.51;101403.66;16148685;19;129917;-57
2022/06/20 05:30:40;;;;;;;2.60;0.60;;;;;;;21.82;38.05;101416.72;16143276;19;129031;-57
2022/06/20 05:36:05;;;;;;;4.28;0.95;;;;;;;21.81;37.72;101406.69;16142064;19;129627;-58
2022/06/20 05:41:27;;;;;;;5.13;1.00;;;;;;;21.81;37.56;101411.41;16146589;19;129791;-58
2022/06/20 05:46:58;;;;;;;6.75;0.90;;;;;;;21.81;37.56;101406.69;16145525;19;130707;-64
2022/06/20 05:52:25;;;;;;;2.55;0.80;;;;;;;21.82;37.56;101419.50;16145263;19;129705;-57
2022/06/20 05:57:50;;;;;;;4.63;0.88;;;;;;;21.82;38.04;101427.03;16142460;19;130197;-58
2022/06/20 06:03:17;;;;;;;3.47;1.10;;;;;;;21.81;37.67;101434.53;16143172;19;130734;-58
2022/06/20 06:08:49;;;;;;;3.40;0.93;;;;;;;21.83;37.84;101439.88;16143377;19;130260;-57
2022/06/20 06:14:29;;;;;;;3.58;0.95;;;;;;;21.83;37.66;101443.47;16142047;19;130119;-58
2022/06/20 06:19:53;;;;;;;4.85;0.88;;;;;;;21.86;37.47;101444.06;16138456;19;129795;-58
2022/06/20 06:25:30;;;;;;;1.85;0.65;;;;;;;21.94;37.57;101455.63;16137076;19;132535;-57
2022/06/20 06:31:15;;;;;;;4.45;0.90;;;;;;;22.00;37.69;101450.97;16125997;19;130289;-57
2022/06/20 06:37:13;;;;;;;3.72;0.88;;;;;;;22.03;37.27;101453.22;16129515;19;131099;-57
2022/06/20 06:42:36;;;;;;;4.20;0.88;;;;;;;22.10;37.37;101450.25;16133364;19;130682;-58
2022/06/20 06:48:35;;;;;;;2.33;0.70;;;;;;;22.16;37.24;101448.38;16144501;19;129384;-56
2022/06/20 06:54:02;;;;;;;2.55;0.70;;;;;;;22.18;37.47;101465.69;16143089;19;128966;-58
2022/06/20 06:59:39;;;;;;;4.15;1.00;;;;;;;22.18;36.87;101460.09;16139579;19;128910;-57
2022/06/20 07:05:14;;;;;;;2.13;0.88;;;;;;;22.17;37.34;101458.41;16126054;19;129530;-58
2022/06/20 07:10:38;;;;;;;3.67;0.77;;;;;;;22.16;37.11;101479.88;16126972;19;129927;-58
2022/06/20 07:16:03;;;;;;;1.97;0.53;;;;;;;22.16;36.91;101484.59;16127298;19;129880;-58
2022/06/20 07:21:28;;;;;;;5.35;0.70;;;;;;;22.19;36.87;101506.38;16145779;19;128957;-58
2022/06/20 07:27:00;;;;;;;3.53;0.70;;;;;;;22.20;36.47;101513.66;16145279;19;129350;-58
2022/06/20 07:32:38;;;;;;;3.67;0.80;;;;;;;22.22;36.56;101511.50;16139427;19;129285;-58
2022/06/20 07:38:11;;;;;;;3.30;0.63;;;;;;;22.23;36.39;101518.75;16144037;19;128986;-58
2022/06/20 07:43:43;;;;;;;2.08;0.60;;;;;;;22.31;36.40;101521.09;16142556;19;130012;-58
2022/06/20 07:49:11;;;;;;;1.23;0.38;;;;;;;22.38;36.25;101518.13;16142862;19;131984;-58
2022/06/20 07:54:38;;;;;;;1.75;0.50;;;;;;;22.48;36.41;101531.34;16141046;19;129594;-57
2022/06/20 08:00:14;;;;;;;1.60;0.38;;;;;;;22.58;36.32;101520.34;16141824;19;129686;-58
2022/06/20 08:05:44;;;;;;;0.88;0.40;;;;;;;22.59;36.18;101534.00;16144125;19;129166;-58
2022/06/20 08:11:11;;;;;;;5.38;0.63;;;;;;;22.59;36.48;101535.97;16141868;19;129433;-59
2022/06/20 08:16:35;;;;;;;1.33;0.38;;;;;;;22.55;35.89;101534.78;16136202;19;129363;-57
2022/06/20 08:22:02;;;;;;;1.00;0.40;;;;;;;22.57;36.35;101529.81;16140290;19;130084;-58
2022/06/20 08:27:38;;;;;;;1.98;0.52;;;;;;;22.61;36.13;101532.91;16139352;19;130080;-58
2022/06/20 08:33:19;;;;;;;1.23;0.40;;;;;;;22.62;35.97;101538.25;16134523;19;129447;-58
2022/06/20 08:38:53;;;;;;;2.10;0.50;;;;;;;22.66;35.92;101546.94;16140432;19;129287;-58
2022/06/20 08:44:35;;;;;;;1.90;0.52;;;;;;;22.70;35.88;101542.53;16136990;19;132195;-58
2022/06/20 08:50:27;;;;;;;1.02;0.57;;;;;;;22.71;35.94;101547.84;16139433;19;129279;-58
2022/06/20 08:56:47;;;;;;;4.22;0.80;;;;;;;22.67;35.86;101557.81;16136180;19;129027;-58
2022/06/20 09:02:19;;;;;;;3.72;0.50;;;;;;;22.64;35.88;101563.94;16136746;19;129008;-58
2022/06/20 09:07:43;;;;;;;1.77;0.70;;;;;;;22.63;35.53;101570.63;16139435;19;129252;-58
2022/06/20 09:13:43;;;;;;;1.53;0.60;;;;;;;22.64;35.65;101572.31;16136535;19;128858;-58
2022/06/20 09:19:04;;;;;;;2.00;0.70;;;;;;;22.66;35.61;101581.22;16139047;19;130098;-58
2022/06/20 09:24:29;;;;;;;1.08;0.60;;;;;;;22.71;35.45;101577.66;16136100;19;130105;-58
2022/06/20 09:30:03;;;;;;;2.63;0.70;;;;;;;22.74;35.37;101575.22;16134056;19;129459;-59
2022/06/20 09:35:39;;;;;;;4.50;0.85;;;;;;;22.71;35.29;101584.09;16132517;19;131959;-59
2022/06/20 09:41:28;;;;;;;3.75;0.68;;;;;;;22.71;35.61;101586.03;16135346;19;129352;-59
2022/06/20 09:46:52;;;;;;;3.45;0.93;;;;;;;22.74;35.89;101586.38;16135798;19;128872;-59
2022/06/20 09:52:31;;;;;;;2.50;0.83;;;;;;;22.80;35.67;101589.22;16135050;19;129200;-59
2022/06/20 09:58:08;;;;;;;4.22;0.73;;;;;;;22.81;36.05;101588.97;16146919;19;130324;-59
2022/06/20 10:03:44;;;;;;;5.07;1.00;;;;;;;22.80;35.81;101590.06;16149912;19;129007;-59
2022/06/20 10:09:42;;;;;;;2.60;0.70;;;;;;;22.81;36.08;101602.06;16151643;19;129669;-58
2022/06/20 10:15:21;;;;;;;5.30;0.93;;;;;;;22.80;35.55;101598.44;16143606;19;129345;-59
2022/06/20 10:21:13;;;;;;;5.25;0.75;;;;;;;22.78;35.96;101603.44;16139721;19;130149;-59
2022/06/20 10:26:53;;;;;;;3.85;0.73;;;;;;;22.78;36.12;101602.56;16148316;19;128873;-59
2022/06/20 10:32:48;;;;;;;3.47;0.80;;;;;;;22.81;36.15;101621.59;16141732;19;129706;-59
2022/06/20 10:38:45;;;;;;;3.33;0.60;;;;;;;22.86;36.52;101625.28;16143031;19;129218;-59
2022/06/20 10:44:21;;;;;;;;;;;;;;;22.88;36.31;101625.88;16142735;19;129488;-59
2022/06/20 10:50:38;;;;;;;4.20;0.60;;;;;;;22.95;36.42;101630.47;16141978;19;129567;-59
2022/06/20 10:56:33;;;;;;;1.73;0.60;;;;;;;22.96;36.33;101634.94;16138869;19;129285;-59
2022/06/20 11:02:32;;;;;;;3.75;0.50;;;;;;;22.97;36.34;101640.28;16145564;19;130209;-57
2022/06/20 11:08:12;;;;;;;2.88;0.80;;;;;;;22.95;36.14;101642.47;16145527;19;129019;-59
2022/06/20 11:13:41;;;;;;;2.75;0.68;;;;;;;22.92;36.22;101642.97;16144010;19;129047;-58
2022/06/20 11:19:29;;;;;;;1.88;0.70;;;;;;;22.93;36.00;101641.88;16144862;19;128842;-57
2022/06/20 11:25:23;;;;;;;1.63;0.60;;;;;;;22.92;35.94;101631.81;16145234;19;129762;-57
2022/06/20 11:31:00;;;;;;;3.25;0.50;;;;;;;22.91;36.01;101632.91;16139928;19;130260;-57
2022/06/20 11:36:45;;;;;;;2.83;0.80;;;;;;;22.89;36.28;101621.16;16140803;19;129361;-58
2022/06/20 11:42:26;;;;;;;7.60;0.82;;;;;;;22.86;35.84;101624.47;16142481;19;129360;-58
2022/06/20 11:48:09;;;;;;;2.20;0.60;;;;;;;22.87;35.69;101623.38;16144378;19;129475;-57
2022/06/20 11:53:42;;;;;;;2.38;0.80;;;;;;;22.84;35.93;101623.88;16140085;19;129824;-57
2022/06/20 11:59:29;;;;;;;1.65;0.50;;;;;;;22.85;35.63;101620.00;16144075;19;129615;-57
2022/06/20 12:05:17;;;;;;;2.83;0.80;;;;;;;22.82;36.20;101604.63;16137543;19;129492;-58
2022/06/20 12:10:57;;;;;;;2.15;0.63;;;;;;;22.83;35.90;101611.03;16141135;19;130260;-57
2022/06/20 12:16:50;;;;;;;3.83;1.00;;;;;;;22.82;35.70;101615.78;16136317;19;129484;-58
2022/06/20 12:27:54;;;;;;;4.60;1.00;;;;;;;22.84;35.50;101607.13;16140504;19;129191;-58
2022/06/20 12:33:15;;;;;;;5.30;0.93;;;;;;;22.87;35.92;101615.81;16133354;19;131782;-59
2022/06/20 12:38:47;;;;;;;4.22;1.00;;;;;;;22.96;36.00;101615.41;16138664;19;129203;-59
2022/06/20 12:44:29;;;;;;;7.80;1.30;;;;;;;22.95;36.07;101610.94;16139079;19;129155;-59
2022/06/20 12:50:15;;;;;;;3.08;0.90;;;;;;;23.01;35.58;101613.53;16139010;19;129821;-59
2022/06/20 12:56:14;;;;;;;8.48;1.10;;;;;;;23.03;35.63;101616.06;16137462;19;128895;-60
2022/06/20 13:01:38;;;;;;;1.55;0.77;;;;;;;23.04;35.70;101623.34;16138535;19;130833;-61
2022/06/20 13:07:09;;;;;;;4.37;0.93;;;;;;;23.05;35.53;101625.84;16136247;19;129912;-60
2022/06/20 13:12:52;;;;;;;3.05;0.95;;;;;;;23.09;35.62;101619.75;16138099;19;130347;-59
2022/06/20 13:18:32;;;;;;;6.78;1.50;;;;;;;23.11;35.05;101623.13;16136658;19;129449;-60
2022/06/20 13:24:10;;;;;;;5.78;1.55;;;;;;;23.11;35.58;101620.34;16131160;19;129588;-59
2022/06/20 13:29:51;;;;;;;3.83;1.30;;;;;;;23.11;35.58;101623.13;16140786;19;129818;-60
2022/06/20 13:35:25;;;;;;;4.22;1.10;;;;;;;23.11;35.72;101620.34;16150096;19;130180;-59
2022/06/20 13:40:52;;;;;;;3.70;1.25;;;;;;;23.10;35.59;101618.66;16150109;19;128894;-60
2022/06/20 13:46:26;;;;;;;4.00;1.02;;;;;;;23.11;35.59;101609.19;16151204;19;130859;-60
2022/06/20 13:52:02;;;;;;;5.72;1.38;;;;;;;23.09;35.40;101619.75;16150592;19;130013;-60
2022/06/20 13:57:36;;;;;;;4.28;1.10;;;;;;;23.12;35.47;101614.50;16147249;19;128927;-60
2022/06/20 14:03:19;;;;;;;3.80;1.35;;;;;;;23.13;35.38;101623.72;16148476;19;129438;-60
2022/06/20 14:08:49;;;;;;;4.72;1.52;;;;;;;23.15;35.46;101621.50;16148792;19;129333;-60
2022/06/20 14:14:22;;;;;;;4.38;1.48;;;;;;;23.17;35.55;101619.28;16145979;19;129403;-60
2022/06/20 14:19:47;;;;;;;4.47;1.00;;;;;;;23.16;35.44;101623.19;16144753;19;128929;-60
2022/06/20 14:25:38;;;;;;;2.38;1.20;;;;;;;23.19;35.37;101626.31;16148495;19;129703;-60
2022/06/20 14:31:23;;;;;;;3.92;1.00;;;;;;;23.21;35.12;101617.69;16143946;19;130693;-60
2022/06/20 14:37:23;;;;;;;1.98;0.82;;;;;;;23.22;35.41;101618.50;16142929;19;129491;-60
2022/06/20 14:42:57;;;;;;;3.38;1.20;;;;;;;23.18;35.40;101619.03;16145329;19;129610;-60
2022/06/20 14:48:29;;;;;;;2.92;0.98;;;;;;;23.18;35.22;101613.47;16145188;19;130655;-60
2022/06/20 14:54:01;;;;;;;4.05;1.00;;;;;;;23.20;35.52;101615.97;16144174;19;129481;-59
2022/06/20 14:59:41;;;;;;;3.63;1.00;;;;;;;23.20;35.59;101618.78;16145882;19;128808;-60
2022/06/20 15:05:27;;;;;;;2.80;1.00;;;;;;;23.17;35.13;101620.16;16143997;19;130262;-59
2022/06/20 15:10:55;;;;;;;4.93;1.40;;;;;;;23.16;34.95;101618.47;16145824;19;128959;-60
2022/06/20 15:16:24;;;;;;;5.18;1.20;;;;;;;23.15;35.61;101625.16;16143245;19;129599;-60
2022/06/20 15:22:00;;;;;;;4.50;1.30;;;;;;;23.14;35.06;101628.22;16143051;19;129421;-59
2022/06/20 15:27:44;;;;;;;5.70;1.13;;;;;;;23.11;35.12;101623.13;16144061;19;129286;-62
2022/06/20 15:33:26;;;;;;;5.45;1.15;;;;;;;23.10;35.00;101625.06;16139399;19;129108;-60
2022/06/20 15:38:50;;;;;;;3.47;1.17;;;;;;;23.11;34.73;101623.13;16143911;19;130117;-59
2022/06/20 15:44:20;;;;;;;9.70;1.93;;;;;;;23.11;34.62;101625.94;16145704;19;130244;-58
2022/06/20 15:50:12;;;;;;;6.28;1.38;;;;;;;23.09;34.21;101616.97;16141611;19;128979;-63
2022/06/20 15:55:50;;;;;;;4.25;1.08;;;;;;;23.04;34.62;101613.00;16134531;19;130219;-58
2022/06/20 16:01:41;;;;;;;4.05;1.20;;;;;;;22.98;34.58;101614.06;16142388;19;129583;-60
2022/06/20 16:07:11;;;;;;;7.43;1.70;;;;;;;22.96;34.23;101616.25;16141283;19;129289;-60
2022/06/20 16:12:43;;;;;;;5.90;1.33;;;;;;;22.91;34.11;101613.38;16138059;19;128942;-60
2022/06/20 16:18:15;;;;;;;6.82;1.55;;;;;;;22.88;33.74;101608.31;16138915;19;130319;-59
2022/06/20 16:23:56;;;;;;;5.47;1.58;;;;;;;22.85;33.56;101622.78;16141192;19;131424;-57
2022/06/20 16:29:21;;;;;;;7.05;1.60;;;;;;;22.82;33.61;101617.72;16140664;19;130305;-60
2022/06/20 16:34:56;;;;;;;7.35;2.03;;;;;;;22.80;33.55;101625.47;16139683;19;128934;-58
2022/06/20 16:40:17;;;;;;;4.38;1.35;;;;;;;22.79;33.84;101618.22;16140848;19;132721;-57
2022/06/20 16:45:54;;;;;;;6.95;1.40;;;;;;;22.80;33.28;101617.13;16142583;19;129268;-58
2022/06/20 16:51:35;;;;;;;4.38;1.48;;;;;;;22.80;33.25;101623.56;16132097;19;129250;-61
2022/06/20 16:57:08;;;;;;;8.93;1.60;;;;;;;22.81;33.54;101624.38;16136111;19;129542;-62
2022/06/20 17:02:50;;;;;;;5.20;1.60;;;;;;;22.85;33.52;101625.56;16142004;19;129461;-61
2022/06/20 17:08:14;;;;;;;8.40;1.38;;;;;;;22.89;33.55;101627.56;16169564;19;129421;-62
2022/06/20 17:13:48;;;;;;;2.73;1.00;;;;;;;22.94;33.89;101615.66;16171997;19;129386;-61
2022/06/20 17:19:19;;;;;;;8.63;1.67;;;;;;;22.99;33.38;101615.75;16169990;19;129197;-64
2022/06/20 17:25:01;;;;;;;4.55;1.50;;;;;;;23.02;33.54;101623.56;16171818;19;129382;-63
2022/06/20 17:30:31;;;;;;;4.47;1.17;;;;;;;23.04;33.59;101618.59;16170135;19;129079;-62
2022/06/20 17:36:13;;;;;;;3.78;1.10;;;;;;;23.07;33.39;101620.03;16172061;19;130193;-61
2022/06/20 17:42:13;;;;;;;3.80;1.10;;;;;;;23.08;33.36;101623.66;16176571;19;129130;-62
2022/06/20 17:47:47;;;;;;;4.40;1.20;;;;;;;23.07;33.85;101628.41;16177464;19;128836;-63
2022/06/20 17:53:38;;;;;;;4.57;1.27;;;;;;;23.08;33.80;101626.44;16177794;19;130306;-63
2022/06/20 17:59:12;;;;;;;5.43;1.60;;;;;;;23.09;33.86;101625.34;16189006;19;129491;-63
2022/06/20 18:04:48;;;;;;;4.68;1.10;;;;;;;23.08;33.85;101623.66;16245933;19;129038;-63
2022/06/20 18:10:20;;;;;;;2.92;0.85;;;;;;;23.08;34.20;101620.88;16238509;19;128468;-65
2022/06/20 18:16:10;;;;;;;3.75;1.50;;;;;;;23.08;34.07;101623.66;16238050;19;131211;-61
2022/06/20 18:21:50;;;;;;;5.13;1.20;;;;;;;23.08;34.06;101623.66;16229693;19;128446;-64
2022/06/20 18:27:24;;;;;;;3.15;1.00;;;;;;;23.05;33.94;101631.44;16231425;19;129127;-63
2022/06/20 18:32:52;;;;;;;4.53;1.23;;;;;;;23.05;34.32;101636.19;16226696;19;128975;-63
2022/06/20 18:38:17;;;;;;;3.53;1.17;;;;;;;23.02;33.82;101626.38;16225630;19;128743;-63
2022/06/20 18:43:41;;;;;;;;;;;;;;;22.98;34.15;101618.78;16231452;19;128912;-61
2022/06/20 18:49:16;;;;;;;3.78;1.00;;;;;;;23.01;33.93;101623.84;16231035;19;128215;-64
2022/06/20 18:54:56;;;;;;;3.85;1.30;;;;;;;22.99;33.89;101631.63;16229169;19;128264;-63
2022/06/20 19:00:24;;;;;;;4.38;1.30;;;;;;;22.95;34.16;101631.31;16225419;19;129257;-68
2022/06/20 19:05:58;;;;;;;8.63;1.15;;;;;;;22.96;34.28;101623.75;16231183;19;129241;-67
2022/06/20 19:11:57;;;;;;;6.00;1.27;;;;;;;22.97;34.31;101631.91;16229935;19;127911;-67
2022/06/20 19:17:36;;;;;;;8.38;1.80;;;;;;;22.98;34.82;101639.16;16226101;19;128299;-68
2022/06/20 19:23:14;;;;;;;9.32;1.20;;;;;;;22.99;34.18;101632.50;16230364;19;128099;-66
2022/06/20 19:28:41;;;;;;;5.93;1.10;;;;;;;22.98;34.69;101638.31;16226493;19;128087;-66
2022/06/20 19:34:15;;;;;;;9.20;1.50;;;;;;;22.97;34.72;101640.28;16217460;19;129245;-67
2022/06/20 19:39:54;;;;;;;3.70;0.93;;;;;;;22.99;34.67;101648.38;16220236;19;128689;-66
2022/06/20 19:45:49;;;;;;;3.03;0.93;;;;;;;22.98;34.67;101641.09;16222470;19;128391;-66
2022/06/20 19:51:31;;;;;;;3.67;1.10;;;;;;;22.96;34.79;101644.16;16222879;19;128597;-68
2022/06/20 19:57:16;;;;;;;4.78;0.82;;;;;;;22.96;34.94;101648.88;16217375;19;129573;-66
2022/06/20 20:02:38;;;;;;;2.30;0.85;;;;;;;22.93;35.22;101644.66;16219734;19;129700;-66
2022/06/20 20:08:00;;;;;;;4.45;1.20;;;;;;;22.94;35.37;101639.94;16221632;19;129067;-66
2022/06/20 20:13:29;;;;;;;2.35;0.88;;;;;;;22.92;35.31;101648.56;16220576;19;128285;-64
2022/06/20 20:19:09;;;;;;;4.07;0.82;;;;;;;22.91;34.98;101657.19;16214590;19;128277;-65
2022/06/20 20:24:36;;;;;;;6.03;1.05;;;;;;;22.85;35.02;101659.03;16167954;19;129358;-65
2022/06/20 20:30:11;;;;;;;4.00;0.80;;;;;;;22.82;35.26;101651.19;16135087;19;130694;-64
2022/06/20 20:35:54;;;;;;;2.85;0.90;;;;;;;22.77;35.29;101651.13;16129710;19;130724;-65
2022/06/20 20:41:31;;;;;;;5.25;1.17;;;;;;;22.72;35.17;101644.38;16128726;19;129634;-65
2022/06/20 20:46:53;;;;;;;4.00;0.90;;;;;;;22.67;35.36;101652.66;16137337;19;129305;-65
2022/06/20 20:52:19;;;;;;;4.70;0.88;;;;;;;22.66;35.29;101661.28;16134593;19;129397;-65
2022/06/20 20:57:48;;;;;;;3.15;1.15;;;;;;;22.63;35.29;101668.22;16134843;19;129970;-66
2022/06/20 21:03:13;;;;;;;12.30;1.80;;;;;;;22.60;35.23;101663.16;16142110;19;129409;-65
2022/06/20 21:08:41;;;;;;;2.30;0.90;;;;;;;22.59;35.19;101655.88;16133258;19;129697;-65
2022/06/20 21:14:19;;;;;;;4.22;0.98;;;;;;;22.57;35.11;101660.88;16136457;19;129659;-64
2022/06/20 21:19:40;;;;;;;3.53;1.02;;;;;;;22.51;34.99;101654.38;16132938;19;129781;-64
2022/06/20 21:25:03;;;;;;;3.13;0.80;;;;;;;22.49;35.20;101653.78;16139284;19;129769;-65
2022/06/20 21:30:29;;;;;;;4.38;1.00;;;;;;;22.48;35.29;101662.41;16142884;19;129657;-64
2022/06/20 21:35:52;;;;;;;5.78;0.80;;;;;;;22.46;35.19;101656.22;16138905;19;131175;-65
2022/06/20 21:41:14;;;;;;;3.67;0.65;;;;;;;22.45;35.21;101658.19;16138219;19;129606;-63
2022/06/20 21:46:38;;;;;;;2.35;0.80;;;;;;;22.43;35.02;101652.84;16138930;19;129565;-66
2022/06/20 21:52:12;;;;;;;4.35;0.80;;;;;;;22.41;35.36;101643.88;16140798;19;129778;-65
2022/06/20 21:57:40;;;;;;;2.70;1.00;;;;;;;22.39;35.56;101656.41;16151277;19;129633;-64
2022/06/20 22:08:49;;;;;;;;;;;;;;;22.33;35.55;101658.25;16159143;19;129104;-65
2022/06/20 22:14:13;;;;;;;3.03;0.95;;;;;;;22.34;35.55;101661.91;16158482;19;129552;-65
2022/06/20 22:19:37;;;;;;;2.63;0.70;;;;;;;22.32;35.40;101656.56;16146357;19;130095;-65
2022/06/20 22:25:00;;;;;;;1.83;0.80;;;;;;;22.31;35.70;101660.47;16145467;19;129168;-65
2022/06/20 22:30:45;;;;;;;1.98;0.60;;;;;;;22.31;35.75;101656.84;16149144;19;129390;-65
2022/06/20 22:36:09;;;;;;;1.98;0.70;;;;;;;22.27;35.82;101650.94;16137758;19;129646;-65
2022/06/20 22:41:35;;;;;;;1.75;0.60;;;;;;;22.28;35.78;101649.81;16140272;19;129668;-66
2022/06/20 22:47:01;;;;;;;;;;;;;;;22.23;35.60;101644.16;16142433;19;130424;-66
2022/06/20 22:52:37;;;;;;;4.13;0.80;;;;;;;22.25;35.80;101645.59;16140905;19;129744;-65
2022/06/20 22:58:02;;;;;;;1.30;0.80;;;;;;;22.22;35.73;101640.53;16138242;19;129060;-65
2022/06/20 23:03:25;;;;;;;2.63;0.77;;;;;;;22.20;35.85;101636.28;16143351;19;129327;-66
2022/06/20 23:08:47;;;;;;;2.03;0.65;;;;;;;22.20;36.14;101630.69;16140647;19;130224;-66
2022/06/20 23:14:13;;;;;;;4.70;0.70;;;;;;;22.19;35.65;101640.16;16143365;19;129579;-66
2022/06/20 23:19:40;;;;;;;2.30;1.05;;;;;;;22.17;36.01;101642.34;16134541;19;129007;-65
2022/06/20 23:25:23;;;;;;;2.58;0.70;;;;;;;22.18;35.86;101636.53;16139476;19;129145;-64
2022/06/20 23:30:44;;;;;;;3.85;0.70;;;;;;;22.15;35.87;101637.03;16139322;19;130397;-65
2022/06/20 23:36:07;;;;;;;2.85;0.63;;;;;;;22.15;35.89;101639.81;16134736;19;130105;-65
2022/06/20 23:41:29;;;;;;;2.95;0.85;;;;;;;22.13;35.97;101639.22;16131917;19;129395;-64
2022/06/20 23:46:53;;;;;;;1.23;0.52;;;;;;;22.13;36.33;101630.88;16135929;19;129513;-65
2022/06/20 23:52:15;;;;;;;1.15;0.70;;;;;;;22.11;36.30;101622.78;16139026;19;130610;-64
2022/06/20 23:57:40;;;;;;;1.42;0.60;;;;;;;22.10;36.40;101637.81;16138546;19;131664;-64
